createdAt,value
2018-07-17T00:00:26.167Z,1007.57
2018-07-17T00:01:26.130Z,1007.61
2018-07-17T00:02:26.122Z,1007.54
2018-07-17T00:03:26.052Z,1007.55
2018-07-17T00:04:26.009Z,1007.54
2018-07-17T00:05:25.975Z,1007.55
2018-07-17T00:06:25.936Z,1007.56
2018-07-17T00:07:25.922Z,1007.56
2018-07-17T00:08:25.866Z,1007.56
2018-07-17T00:09:25.830Z,1007.57
2018-07-17T00:10:25.793Z,1007.59
2018-07-17T00:11:25.753Z,1007.60
2018-07-17T00:12:25.713Z,1007.57
2018-07-17T00:13:25.691Z,1007.58
2018-07-17T00:14:25.637Z,1007.58
2018-07-17T00:15:25.612Z,1007.58
2018-07-17T00:16:25.567Z,1007.54
2018-07-17T00:17:25.524Z,1007.56
2018-07-17T00:18:25.512Z,1007.55
2018-07-17T00:19:25.471Z,1007.59
2018-07-17T00:20:25.418Z,1007.59
2018-07-17T00:21:35.937Z,1007.58
2018-07-17T00:22:25.335Z,1007.58
2018-07-17T00:23:25.320Z,1007.60
2018-07-17T00:24:25.265Z,1007.60
2018-07-17T00:25:25.223Z,1007.57
2018-07-17T00:26:25.195Z,1007.59
2018-07-17T00:27:25.153Z,1007.58
2018-07-17T00:28:25.132Z,1007.59
2018-07-17T00:29:25.076Z,1007.56
2018-07-17T00:30:25.043Z,1007.60
2018-07-17T00:31:25.002Z,1007.57
2018-07-17T00:32:24.965Z,1007.56
2018-07-17T00:33:24.955Z,1007.56
2018-07-17T00:34:24.886Z,1007.55
2018-07-17T00:35:24.853Z,1007.54
2018-07-17T00:36:24.808Z,1007.53
2018-07-17T00:37:24.772Z,1007.52
2018-07-17T00:38:24.754Z,1007.54
2018-07-17T00:39:24.724Z,1007.52
2018-07-17T00:40:24.667Z,1007.54
2018-07-17T00:41:24.626Z,1007.49
2018-07-17T00:42:24.585Z,1007.50
2018-07-17T00:43:24.559Z,1007.47
2018-07-17T00:44:24.542Z,1007.47
2018-07-17T00:45:24.479Z,1007.47
2018-07-17T00:46:24.433Z,1007.47
2018-07-17T00:47:24.397Z,1007.47
2018-07-17T00:48:24.358Z,1007.47
2018-07-17T00:49:24.323Z,1007.48
2018-07-17T00:50:24.313Z,1007.47
2018-07-17T00:51:24.259Z,1007.48
2018-07-17T00:52:24.217Z,1007.49
2018-07-17T00:53:24.178Z,1007.48
2018-07-17T00:54:24.133Z,1007.46
2018-07-17T00:55:24.121Z,1007.50
2018-07-17T00:56:24.059Z,1007.47
2018-07-17T00:57:24.021Z,1007.53
2018-07-17T00:58:23.990Z,1007.48
2018-07-17T00:59:23.952Z,1007.46
2018-07-17T01:00:23.936Z,1007.48
2018-07-17T01:01:23.870Z,1007.49
2018-07-17T01:02:23.838Z,1007.51
2018-07-17T01:03:23.801Z,1007.52
2018-07-17T01:04:23.767Z,1007.50
2018-07-17T01:05:23.728Z,1007.50
2018-07-17T01:06:23.713Z,1007.47
2018-07-17T01:07:23.647Z,1007.46
2018-07-17T01:08:23.608Z,1007.48
2018-07-17T01:09:23.569Z,1007.52
2018-07-17T01:10:23.539Z,1007.48
2018-07-17T01:11:23.528Z,1007.48
2018-07-17T01:12:31.993Z,1007.51
2018-07-17T01:13:23.424Z,1007.49
2018-07-17T01:14:23.395Z,1007.47
2018-07-17T01:15:23.354Z,1007.47
2018-07-17T01:16:23.307Z,1007.51
2018-07-17T01:17:23.298Z,1007.52
2018-07-17T01:18:23.233Z,1007.48
2018-07-17T01:19:23.198Z,1007.46
2018-07-17T01:20:23.167Z,1007.44
2018-07-17T01:21:23.127Z,1007.42
2018-07-17T01:22:23.115Z,1007.40
2018-07-17T01:23:23.052Z,1007.41
2018-07-17T01:24:23.008Z,1007.36
2018-07-17T01:25:22.970Z,1007.35
2018-07-17T01:26:22.932Z,1007.34
2018-07-17T01:27:22.902Z,1007.29
2018-07-17T01:28:22.888Z,1007.31
2018-07-17T01:29:22.826Z,1007.29
2018-07-17T01:30:22.781Z,1007.25
2018-07-17T01:31:22.746Z,1007.29
2018-07-17T01:32:22.716Z,1007.29
2018-07-17T01:33:22.698Z,1007.31
2018-07-17T01:34:22.640Z,1007.31
2018-07-17T01:35:22.602Z,1007.30
2018-07-17T01:36:22.561Z,1007.33
2018-07-17T01:37:22.526Z,1007.32
2018-07-17T01:38:22.510Z,1007.28
2018-07-17T01:39:22.442Z,1007.27
2018-07-17T01:40:22.415Z,1007.23
2018-07-17T01:41:22.379Z,1007.23
2018-07-17T01:42:22.346Z,1007.22
2018-07-17T01:43:22.326Z,1007.24
2018-07-17T01:44:22.257Z,1007.20
2018-07-17T01:45:22.217Z,1007.21
2018-07-17T01:46:22.188Z,1007.20
2018-07-17T01:47:22.159Z,1007.21
2018-07-17T01:48:22.105Z,1007.19
2018-07-17T01:49:22.091Z,1007.24
2018-07-17T01:50:22.029Z,1007.22
2018-07-17T01:51:21.994Z,1007.22
2018-07-17T01:52:21.961Z,1007.24
2018-07-17T01:53:21.946Z,1007.27
2018-07-17T01:54:21.883Z,1007.27
2018-07-17T01:55:21.849Z,1007.27
2018-07-17T01:56:21.803Z,1007.23
2018-07-17T01:57:21.770Z,1007.25
2018-07-17T01:58:21.752Z,1007.23
2018-07-17T01:59:21.695Z,1007.26
2018-07-17T02:00:21.667Z,1007.25
2018-07-17T02:01:21.622Z,1007.25
2018-07-17T02:02:21.575Z,1007.27
2018-07-17T02:03:21.538Z,1007.22
2018-07-17T02:04:21.530Z,1007.21
2018-07-17T02:05:32.549Z,1007.26
2018-07-17T02:06:21.428Z,1007.20
2018-07-17T02:07:21.390Z,1007.23
2018-07-17T02:08:21.354Z,1007.24
2018-07-17T02:09:21.339Z,1007.22
2018-07-17T02:10:21.287Z,1007.25
2018-07-17T02:11:21.246Z,1007.26
2018-07-17T02:12:21.210Z,1007.30
2018-07-17T02:13:21.174Z,1007.33
2018-07-17T02:14:21.148Z,1007.33
2018-07-17T02:15:21.089Z,1007.30
2018-07-17T02:16:21.059Z,1007.29
2018-07-17T02:17:21.024Z,1007.31
2018-07-17T02:18:20.977Z,1007.31
2018-07-17T02:19:20.964Z,1007.28
2018-07-17T02:20:20.902Z,1007.30
2018-07-17T02:21:20.870Z,1007.29
2018-07-17T02:22:20.832Z,1007.24
2018-07-17T02:23:31.100Z,1007.21
2018-07-17T02:24:20.753Z,1007.18
2018-07-17T02:25:20.739Z,1007.16
2018-07-17T02:26:20.678Z,1007.14
2018-07-17T02:27:20.642Z,1007.14
2018-07-17T02:28:20.608Z,1007.11
2018-07-17T02:29:20.570Z,1007.15
2018-07-17T02:30:20.548Z,1007.16
2018-07-17T02:31:20.488Z,1007.15
2018-07-17T02:32:20.462Z,1007.16
2018-07-17T02:33:20.419Z,1007.19
2018-07-17T02:34:20.379Z,1007.14
2018-07-17T02:35:20.372Z,1007.17
2018-07-17T02:36:20.304Z,1007.20
2018-07-17T02:37:20.265Z,1007.22
2018-07-17T02:38:20.224Z,1007.20
2018-07-17T02:39:20.189Z,1007.26
2018-07-17T02:40:20.158Z,1007.25
2018-07-17T02:41:20.144Z,1007.26
2018-07-17T02:42:20.168Z,1007.28
2018-07-17T02:43:20.052Z,1007.27
2018-07-17T02:44:20.000Z,1007.26
2018-07-17T02:45:19.965Z,1007.25
2018-07-17T02:46:19.954Z,1007.16
2018-07-17T02:47:19.896Z,1007.21
2018-07-17T02:48:19.849Z,1007.18
2018-07-17T02:49:19.816Z,1007.15
2018-07-17T02:50:19.775Z,1007.15
2018-07-17T02:51:19.764Z,1007.13
2018-07-17T02:52:19.708Z,1007.11
2018-07-17T02:53:19.672Z,1007.12
2018-07-17T02:54:19.639Z,1007.10
2018-07-17T02:55:19.595Z,1007.11
2018-07-17T02:56:19.582Z,1007.12
2018-07-17T02:57:19.513Z,1007.17
2018-07-17T02:58:19.478Z,1007.16
2018-07-17T02:59:19.444Z,1007.19
2018-07-17T03:00:19.409Z,1007.22
2018-07-17T03:01:19.372Z,1007.25
2018-07-17T03:02:19.371Z,1007.27
2018-07-17T03:03:19.288Z,1007.25
2018-07-17T03:04:19.257Z,1007.30
2018-07-17T03:05:19.230Z,1007.28
2018-07-17T03:06:19.186Z,1007.28
2018-07-17T03:07:19.169Z,1007.25
2018-07-17T03:08:19.103Z,1007.27
2018-07-17T03:09:19.073Z,1007.24
2018-07-17T03:10:19.035Z,1007.29
2018-07-17T03:11:18.996Z,1007.27
2018-07-17T03:12:18.984Z,1007.24
2018-07-17T03:13:18.925Z,1007.30
2018-07-17T03:14:18.882Z,1007.29
2018-07-17T03:15:18.850Z,1007.25
2018-07-17T03:16:18.804Z,1007.31
2018-07-17T03:17:28.666Z,1007.26
2018-07-17T03:18:18.727Z,1007.30
2018-07-17T03:19:18.690Z,1007.31
2018-07-17T03:20:18.654Z,1007.29
2018-07-17T03:21:18.615Z,1007.30
2018-07-17T03:22:18.590Z,1007.31
2018-07-17T03:23:18.572Z,1007.34
2018-07-17T03:24:18.511Z,1007.39
2018-07-17T03:25:18.472Z,1007.43
2018-07-17T03:26:18.430Z,1007.44
2018-07-17T03:27:18.392Z,1007.46
2018-07-17T03:28:18.376Z,1007.49
2018-07-17T03:29:18.316Z,1007.46
2018-07-17T03:30:18.285Z,1007.49
2018-07-17T03:31:18.247Z,1007.53
2018-07-17T03:32:18.208Z,1007.53
2018-07-17T03:33:28.201Z,1007.54
2018-07-17T03:34:18.142Z,1007.55
2018-07-17T03:35:18.099Z,1007.55
2018-07-17T03:36:18.064Z,1007.59
2018-07-17T03:37:18.024Z,1007.55
2018-07-17T03:38:17.981Z,1007.60
2018-07-17T03:39:17.970Z,1007.63
2018-07-17T03:40:17.915Z,1007.70
2018-07-17T03:41:17.880Z,1007.71
2018-07-17T03:42:17.898Z,1007.76
2018-07-17T03:43:17.804Z,1007.77
2018-07-17T03:44:17.787Z,1007.81
2018-07-17T03:45:17.719Z,1007.82
2018-07-17T03:46:17.690Z,1007.89
2018-07-17T03:47:17.653Z,1007.90
2018-07-17T03:48:17.611Z,1007.96
2018-07-17T03:49:17.602Z,1007.97
2018-07-17T03:50:17.536Z,1007.95
2018-07-17T03:51:28.719Z,1007.96
2018-07-17T03:52:17.475Z,1007.92
2018-07-17T03:53:17.433Z,1007.86
2018-07-17T03:54:17.388Z,1007.83
2018-07-17T03:55:17.371Z,1007.84
2018-07-17T03:56:17.313Z,1007.83
2018-07-17T03:57:17.276Z,1007.83
2018-07-17T03:58:17.245Z,1007.89
2018-07-17T03:59:17.206Z,1007.93
2018-07-17T04:00:17.184Z,1007.96
2018-07-17T04:01:17.130Z,1007.95
2018-07-17T04:02:17.099Z,1007.93
2018-07-17T04:03:17.060Z,1007.90
2018-07-17T04:04:17.024Z,1007.90
2018-07-17T04:05:17.015Z,1007.93
2018-07-17T04:06:16.939Z,1007.92
2018-07-17T04:07:16.907Z,1007.91
2018-07-17T04:08:16.867Z,1007.93
2018-07-17T04:09:16.830Z,1007.88
2018-07-17T04:10:16.810Z,1007.87
2018-07-17T04:11:16.787Z,1007.87
2018-07-17T04:12:16.728Z,1007.87
2018-07-17T04:13:16.726Z,1007.88
2018-07-17T04:14:16.645Z,1007.92
2018-07-17T04:15:16.606Z,1007.90
2018-07-17T04:16:16.596Z,1007.86
2018-07-17T04:17:16.539Z,1007.87
2018-07-17T04:18:16.495Z,1007.81
2018-07-17T04:19:16.465Z,1007.85
2018-07-17T04:20:16.420Z,1007.91
2018-07-17T04:21:16.411Z,1007.99
2018-07-17T04:22:16.357Z,1008.01
2018-07-17T04:23:16.320Z,1008.03
2018-07-17T04:24:16.275Z,1008.00
2018-07-17T04:25:16.244Z,1007.92
2018-07-17T04:26:25.778Z,1007.89
2018-07-17T04:27:16.160Z,1007.89
2018-07-17T04:28:16.132Z,1007.87
2018-07-17T04:29:16.094Z,1007.93
2018-07-17T04:30:16.045Z,1008.00
2018-07-17T04:31:16.012Z,1008.03
2018-07-17T04:32:16.005Z,1008.09
2018-07-17T04:33:15.944Z,1008.07
2018-07-17T04:34:15.905Z,1008.09
2018-07-17T04:35:15.866Z,1008.12
2018-07-17T04:36:15.824Z,1008.15
2018-07-17T04:37:15.811Z,1008.16
2018-07-17T04:38:15.753Z,1008.16
2018-07-17T04:39:15.714Z,1008.10
2018-07-17T04:40:15.682Z,1008.11
2018-07-17T04:41:15.645Z,1008.07
2018-07-17T04:42:15.634Z,1008.10
2018-07-17T04:43:15.571Z,1008.12
2018-07-17T04:44:26.797Z,1008.13
2018-07-17T04:45:15.500Z,1008.13
2018-07-17T04:46:15.455Z,1008.19
2018-07-17T04:47:15.415Z,1008.25
2018-07-17T04:48:15.400Z,1008.30
2018-07-17T04:49:15.341Z,1008.27
2018-07-17T04:50:15.310Z,1008.23
2018-07-17T04:51:15.275Z,1008.22
2018-07-17T04:52:15.239Z,1008.24
2018-07-17T04:53:15.221Z,1008.24
2018-07-17T04:54:15.157Z,1008.26
2018-07-17T04:55:15.121Z,1008.28
2018-07-17T04:56:15.085Z,1008.35
2018-07-17T04:57:15.047Z,1008.36
2018-07-17T04:58:15.047Z,1008.40
2018-07-17T04:59:14.982Z,1008.41
2018-07-17T05:00:14.940Z,1008.45
2018-07-17T05:01:14.903Z,1008.49
2018-07-17T05:02:25.353Z,1008.48
2018-07-17T05:03:14.836Z,1008.53
2018-07-17T05:04:14.819Z,1008.58
2018-07-17T05:05:14.766Z,1008.57
2018-07-17T05:06:14.720Z,1008.61
2018-07-17T05:07:14.687Z,1008.61
2018-07-17T05:08:14.657Z,1008.64
2018-07-17T05:09:14.644Z,1008.66
2018-07-17T05:10:14.640Z,1008.70
2018-07-17T05:11:14.553Z,1008.70
2018-07-17T05:12:14.510Z,1008.73
2018-07-17T05:13:14.475Z,1008.74
2018-07-17T05:14:14.470Z,1008.74
2018-07-17T05:15:14.411Z,1008.71
2018-07-17T05:16:14.404Z,1008.73
2018-07-17T05:17:14.339Z,1008.73
2018-07-17T05:18:14.301Z,1008.73
2018-07-17T05:19:14.295Z,1008.74
2018-07-17T05:20:14.265Z,1008.78
2018-07-17T05:21:24.442Z,1008.80
2018-07-17T05:22:14.164Z,1008.83
2018-07-17T05:23:14.131Z,1008.85
2018-07-17T05:24:14.102Z,1008.85
2018-07-17T05:25:14.082Z,1008.84
2018-07-17T05:26:14.034Z,1008.83
2018-07-17T05:27:14.003Z,1008.82
2018-07-17T05:28:13.961Z,1008.83
2018-07-17T05:29:13.930Z,1008.82
2018-07-17T05:30:13.923Z,1008.87
2018-07-17T05:31:13.870Z,1008.82
2018-07-17T05:32:13.833Z,1008.86
2018-07-17T05:33:13.807Z,1008.86
2018-07-17T05:34:13.762Z,1008.84
2018-07-17T05:35:13.846Z,1008.86
2018-07-17T05:36:13.697Z,1008.87
2018-07-17T05:37:13.661Z,1008.89
2018-07-17T05:38:13.661Z,1008.94
2018-07-17T05:39:23.927Z,1008.91
2018-07-17T05:40:13.564Z,1008.93
2018-07-17T05:41:13.555Z,1008.92
2018-07-17T05:42:13.506Z,1008.93
2018-07-17T05:43:13.471Z,1008.92
2018-07-17T05:44:13.434Z,1008.96
2018-07-17T05:45:13.398Z,1009.01
2018-07-17T05:46:13.391Z,1009.02
2018-07-17T05:47:13.333Z,1009.04
2018-07-17T05:48:13.312Z,1009.05
2018-07-17T05:49:13.275Z,1009.08
2018-07-17T05:50:13.244Z,1009.06
2018-07-17T05:51:13.231Z,1009.09
2018-07-17T05:52:13.173Z,1009.13
2018-07-17T05:53:13.141Z,1009.09
2018-07-17T05:54:13.107Z,1009.15
2018-07-17T05:55:13.073Z,1009.13
2018-07-17T05:56:13.077Z,1009.07
2018-07-17T05:57:13.019Z,1009.11
2018-07-17T05:58:24.461Z,1009.11
2018-07-17T05:59:12.957Z,1009.08
2018-07-17T06:00:12.924Z,1009.12
2018-07-17T06:01:12.889Z,1009.08
2018-07-17T06:02:12.871Z,1009.09
2018-07-17T06:03:12.866Z,1009.08
2018-07-17T06:04:12.794Z,1009.06
2018-07-17T06:05:12.762Z,1009.09
2018-07-17T06:06:12.723Z,1009.14
2018-07-17T06:07:12.713Z,1009.12
2018-07-17T06:08:12.663Z,1009.17
2018-07-17T06:09:12.633Z,1009.13
2018-07-17T06:10:12.671Z,1009.20
2018-07-17T06:11:12.572Z,1009.16
2018-07-17T06:12:12.560Z,1009.20
2018-07-17T06:13:12.507Z,1009.21
2018-07-17T06:14:12.482Z,1009.27
2018-07-17T06:15:12.447Z,1009.25
2018-07-17T06:16:12.420Z,1009.29
2018-07-17T06:17:22.016Z,1009.32
2018-07-17T06:18:12.349Z,1009.38
2018-07-17T06:19:12.316Z,1009.41
2018-07-17T06:20:12.293Z,1009.42
2018-07-17T06:21:12.265Z,1009.44
2018-07-17T06:22:12.326Z,1009.53
2018-07-17T06:23:12.201Z,1009.51
2018-07-17T06:24:12.164Z,1009.50
2018-07-17T06:25:12.175Z,1009.59
2018-07-17T06:26:12.107Z,1009.65
2018-07-17T06:27:12.080Z,1009.70
2018-07-17T06:28:12.080Z,1009.67
2018-07-17T06:29:12.022Z,1009.67
2018-07-17T06:30:11.991Z,1009.64
2018-07-17T06:31:11.947Z,1009.70
2018-07-17T06:32:11.926Z,1009.72
2018-07-17T06:33:11.897Z,1009.71
2018-07-17T06:34:11.885Z,1009.72
2018-07-17T06:35:11.836Z,1009.72
2018-07-17T06:36:11.797Z,1009.71
2018-07-17T06:37:11.770Z,1009.66
2018-07-17T06:38:11.734Z,1009.71
2018-07-17T06:39:11.730Z,1009.65
2018-07-17T06:40:11.691Z,1009.66
2018-07-17T06:41:11.654Z,1009.60
2018-07-17T06:42:11.632Z,1009.54
2018-07-17T06:43:11.592Z,1009.48
2018-07-17T06:44:11.598Z,1009.77
2018-07-17T06:45:11.542Z,1009.80
2018-07-17T06:46:11.512Z,1009.66
2018-07-17T06:47:11.491Z,1009.61
2018-07-17T06:48:11.446Z,1009.53
2018-07-17T06:49:11.451Z,1009.31
2018-07-17T06:50:11.421Z,1009.31
2018-07-17T06:51:11.358Z,1009.34
2018-07-17T06:52:11.339Z,1009.32
2018-07-17T06:53:11.305Z,1009.30
2018-07-17T06:54:11.437Z,1009.42
2018-07-17T06:55:11.268Z,1009.27
2018-07-17T06:56:11.212Z,1009.28
2018-07-17T06:57:11.183Z,1009.27
2018-07-17T06:58:11.155Z,1009.24
2018-07-17T06:59:11.128Z,1009.25
2018-07-17T07:00:11.120Z,1009.23
2018-07-17T07:01:11.060Z,1009.22
2018-07-17T07:02:11.030Z,1009.21
2018-07-17T07:03:11.004Z,1009.20
2018-07-17T07:04:10.972Z,1009.24
2018-07-17T07:05:10.994Z,1009.23
2018-07-17T07:06:10.913Z,1009.19
2018-07-17T07:07:10.885Z,1009.17
2018-07-17T07:08:10.845Z,1009.23
2018-07-17T07:09:10.806Z,1009.25
2018-07-17T07:10:10.806Z,1009.24
2018-07-17T07:11:10.760Z,1009.20
2018-07-17T07:12:10.722Z,1009.19
2018-07-17T07:13:10.690Z,1009.20
2018-07-17T07:14:10.649Z,1009.18
2018-07-17T07:15:10.642Z,1009.22
2018-07-17T07:16:10.597Z,1009.18
2018-07-17T07:17:10.558Z,1009.19
2018-07-17T07:18:10.534Z,1009.22
2018-07-17T07:19:10.493Z,1009.22
2018-07-17T07:20:10.459Z,1009.28
2018-07-17T07:21:10.453Z,1009.25
2018-07-17T07:22:10.383Z,1009.24
2018-07-17T07:23:10.402Z,1009.24
2018-07-17T07:24:10.337Z,1009.23
2018-07-17T07:25:10.297Z,1009.26
2018-07-17T07:26:10.288Z,1009.25
2018-07-17T07:27:10.231Z,1009.25
2018-07-17T07:28:10.192Z,1009.28
2018-07-17T07:29:10.163Z,1009.30
2018-07-17T07:30:10.133Z,1009.28
2018-07-17T07:31:10.123Z,1009.30
2018-07-17T07:32:10.065Z,1009.29
2018-07-17T07:33:10.029Z,1009.31
2018-07-17T07:34:09.987Z,1009.33
2018-07-17T07:35:09.989Z,1009.34
2018-07-17T07:36:09.931Z,1009.36
2018-07-17T07:37:09.909Z,1009.36
2018-07-17T07:38:09.868Z,1009.31
2018-07-17T07:39:09.838Z,1009.33
2018-07-17T07:40:09.805Z,1009.36
2018-07-17T07:41:09.785Z,1009.35
2018-07-17T07:42:09.727Z,1009.34
2018-07-17T07:43:09.696Z,1009.31
2018-07-17T07:44:09.672Z,1009.35
2018-07-17T07:45:09.635Z,1009.36
2018-07-17T07:46:09.625Z,1009.37
2018-07-17T07:47:09.563Z,1009.40
2018-07-17T07:48:09.536Z,1009.38
2018-07-17T07:49:09.583Z,1009.41
2018-07-17T07:50:09.474Z,1009.43
2018-07-17T07:51:09.462Z,1009.43
2018-07-17T07:52:09.402Z,1009.46
2018-07-17T07:53:09.365Z,1009.42
2018-07-17T07:54:09.331Z,1009.44
2018-07-17T07:55:09.302Z,1009.41
2018-07-17T07:56:09.299Z,1009.45
2018-07-17T07:57:09.246Z,1009.41
2018-07-17T07:58:09.218Z,1009.47
2018-07-17T07:59:09.203Z,1009.60
2018-07-17T08:00:09.139Z,1009.63
2018-07-17T08:01:09.132Z,1009.63
2018-07-17T08:02:09.089Z,1009.62
2018-07-17T08:03:09.047Z,1009.63
2018-07-17T08:04:09.017Z,1009.62
2018-07-17T08:05:08.975Z,1009.70
2018-07-17T08:06:08.968Z,1009.69
2018-07-17T08:07:08.909Z,1009.64
2018-07-17T08:08:08.893Z,1009.63
2018-07-17T08:09:08.847Z,1009.64
2018-07-17T08:10:08.821Z,1009.67
2018-07-17T08:11:08.784Z,1009.65
2018-07-17T08:12:18.649Z,1009.68
2018-07-17T08:13:08.723Z,1009.68
2018-07-17T08:14:08.692Z,1009.70
2018-07-17T08:15:08.658Z,1009.65
2018-07-17T08:16:08.621Z,1009.69
2018-07-17T08:17:08.614Z,1009.62
2018-07-17T08:18:08.566Z,1010.11
2018-07-17T08:19:08.529Z,1010.12
2018-07-17T08:20:08.493Z,1010.14
2018-07-17T08:21:08.465Z,1010.17
2018-07-17T08:22:08.449Z,1010.20
2018-07-17T08:23:08.391Z,1010.21
2018-07-17T08:24:08.360Z,1010.18
2018-07-17T08:25:08.329Z,1010.22
2018-07-17T08:26:08.305Z,1010.22
2018-07-17T08:27:08.299Z,1010.24
2018-07-17T08:28:08.259Z,1010.28
2018-07-17T08:29:08.213Z,1010.22
2018-07-17T08:30:08.175Z,1010.16
2018-07-17T08:31:08.144Z,1010.14
2018-07-17T08:32:18.139Z,1010.07
2018-07-17T08:33:08.085Z,1009.98
2018-07-17T08:34:08.058Z,1009.87
2018-07-17T08:35:08.025Z,1010.00
2018-07-17T08:36:08.010Z,1009.97
2018-07-17T08:37:07.975Z,1009.93
2018-07-17T08:38:07.969Z,1009.76
2018-07-17T08:39:07.914Z,1009.74
2018-07-17T08:40:07.882Z,1010.00
2018-07-17T08:41:07.874Z,1009.86
2018-07-17T08:42:07.821Z,1009.84
2018-07-17T08:43:07.869Z,1009.99
2018-07-17T08:44:07.779Z,1009.82
2018-07-17T08:45:07.744Z,1010.00
2018-07-17T08:46:07.712Z,1010.10
2018-07-17T08:47:07.685Z,1009.93
2018-07-17T08:48:07.689Z,1009.81
2018-07-17T08:49:07.659Z,1009.94
2018-07-17T08:50:07.634Z,1009.98
2018-07-17T08:51:17.657Z,1010.00
2018-07-17T08:52:07.547Z,1010.05
2018-07-17T08:53:07.516Z,1010.00
2018-07-17T08:54:07.601Z,1010.01
2018-07-17T08:55:07.464Z,1010.00
2018-07-17T08:56:07.437Z,1009.99
2018-07-17T08:57:07.413Z,1009.97
2018-07-17T08:58:07.376Z,1009.95
2018-07-17T08:59:07.371Z,1009.96
2018-07-17T09:00:07.328Z,1009.99
2018-07-17T09:01:07.300Z,1010.02
2018-07-17T09:02:07.266Z,1009.99
2018-07-17T09:03:07.238Z,1010.06
2018-07-17T09:04:07.237Z,1010.05
2018-07-17T09:05:07.185Z,1010.03
2018-07-17T09:06:07.167Z,1010.02
2018-07-17T09:07:07.136Z,1010.05
2018-07-17T09:08:07.112Z,1009.98
2018-07-17T09:09:07.111Z,1010.02
2018-07-17T09:10:07.052Z,1009.96
2018-07-17T09:11:17.201Z,1009.88
2018-07-17T09:12:07.006Z,1010.05
2018-07-17T09:13:07.053Z,1009.98
2018-07-17T09:14:06.950Z,1010.06
2018-07-17T09:15:06.943Z,1009.98
2018-07-17T09:16:06.900Z,1009.93
2018-07-17T09:17:06.876Z,1010.12
2018-07-17T09:18:06.853Z,1010.17
2018-07-17T09:19:06.829Z,1010.10
2018-07-17T09:20:06.813Z,1010.15
2018-07-17T09:21:06.773Z,1009.94
2018-07-17T09:22:06.739Z,1010.09
2018-07-17T09:23:06.717Z,1010.20
2018-07-17T09:24:06.696Z,1010.04
2018-07-17T09:25:06.700Z,1010.02
2018-07-17T09:26:06.644Z,1010.07
2018-07-17T09:27:06.617Z,1010.09
2018-07-17T09:28:06.606Z,1010.04
2018-07-17T09:29:06.558Z,1010.17
2018-07-17T09:30:06.536Z,1010.14
2018-07-17T09:31:06.535Z,1010.16
2018-07-17T09:32:16.752Z,1010.31
2018-07-17T09:33:06.453Z,1010.29
2018-07-17T09:34:06.432Z,1010.34
2018-07-17T09:35:06.404Z,1010.25
2018-07-17T09:36:06.401Z,1010.24
2018-07-17T09:37:06.353Z,1010.28
2018-07-17T09:38:06.320Z,1010.29
2018-07-17T09:39:06.325Z,1010.23
2018-07-17T09:40:06.267Z,1010.30
2018-07-17T09:41:06.271Z,1010.15
2018-07-17T09:42:06.225Z,1010.13
2018-07-17T09:43:06.199Z,1010.08
2018-07-17T09:44:06.166Z,1010.12
2018-07-17T09:45:06.145Z,1010.10
2018-07-17T09:46:06.125Z,1010.13
2018-07-17T09:47:06.118Z,1010.16
2018-07-17T09:48:06.070Z,1010.11
2018-07-17T09:49:06.051Z,1010.00
2018-07-17T09:50:06.016Z,1010.07
2018-07-17T09:51:05.988Z,1010.11
2018-07-17T09:52:05.989Z,1010.00
2018-07-17T09:53:05.941Z,1010.01
2018-07-17T09:54:05.919Z,1010.02
2018-07-17T09:55:05.899Z,1010.01
2018-07-17T09:56:05.870Z,1010.06
2018-07-17T09:57:05.868Z,1010.04
2018-07-17T09:58:05.815Z,1010.05
2018-07-17T09:59:05.791Z,1010.04
2018-07-17T10:00:05.776Z,1010.01
2018-07-17T10:01:05.751Z,1010.04
2018-07-17T10:02:05.753Z,1010.02
2018-07-17T10:03:05.696Z,1010.03
2018-07-17T10:04:05.677Z,1010.07
2018-07-17T10:05:05.645Z,1010.03
2018-07-17T10:06:05.631Z,1010.07
2018-07-17T10:07:05.605Z,1010.07
2018-07-17T10:08:05.601Z,1010.11
2018-07-17T10:09:05.562Z,1010.10
2018-07-17T10:10:05.526Z,1010.10
2018-07-17T10:11:05.511Z,1010.11
2018-07-17T10:12:16.804Z,1010.11
2018-07-17T10:13:05.494Z,1010.08
2018-07-17T10:14:05.440Z,1010.12
2018-07-17T10:15:05.411Z,1010.08
2018-07-17T10:16:05.392Z,1010.09
2018-07-17T10:17:05.369Z,1010.05
2018-07-17T10:18:05.347Z,1010.07
2018-07-17T10:19:05.346Z,1010.05
2018-07-17T10:20:05.377Z,1010.03
2018-07-17T10:21:05.269Z,1010.04
2018-07-17T10:22:05.267Z,1010.08
2018-07-17T10:23:05.222Z,1010.15
2018-07-17T10:24:05.231Z,1010.13
2018-07-17T10:25:05.183Z,1010.11
2018-07-17T10:26:05.161Z,1010.16
2018-07-17T10:27:05.142Z,1010.11
2018-07-17T10:28:05.105Z,1010.14
2018-07-17T10:29:05.106Z,1010.13
2018-07-17T10:30:05.071Z,1010.11
2018-07-17T10:31:05.075Z,1010.12
2018-07-17T10:32:05.017Z,1010.17
2018-07-17T10:33:04.989Z,1010.15
2018-07-17T10:34:04.962Z,1010.22
2018-07-17T10:35:04.941Z,1010.30
2018-07-17T10:36:04.926Z,1010.28
2018-07-17T10:37:04.927Z,1010.27
2018-07-17T10:38:04.876Z,1010.16
2018-07-17T10:39:04.850Z,1010.20
2018-07-17T10:40:04.825Z,1010.25
2018-07-17T10:41:04.796Z,1010.26
2018-07-17T10:42:04.797Z,1010.23
2018-07-17T10:43:04.751Z,1010.23
2018-07-17T10:44:04.741Z,1010.28
2018-07-17T10:45:04.712Z,1010.31
2018-07-17T10:46:04.713Z,1010.27
2018-07-17T10:47:04.659Z,1010.26
2018-07-17T10:48:04.642Z,1010.29
2018-07-17T10:49:04.620Z,1010.24
2018-07-17T10:50:04.597Z,1010.25
2018-07-17T10:51:04.574Z,1010.25
2018-07-17T10:52:14.391Z,1010.22
2018-07-17T10:53:04.519Z,1010.21
2018-07-17T10:54:04.507Z,1010.25
2018-07-17T10:55:04.487Z,1010.18
2018-07-17T10:56:04.466Z,1010.09
2018-07-17T10:57:04.457Z,1010.00
2018-07-17T10:58:04.404Z,1009.96
2018-07-17T10:59:04.379Z,1009.95
2018-07-17T11:00:04.365Z,1009.91
2018-07-17T11:01:04.441Z,1010.00
2018-07-17T11:02:04.344Z,1009.90
2018-07-17T11:03:04.289Z,1009.95
2018-07-17T11:04:04.271Z,1009.93
2018-07-17T11:05:04.244Z,1009.95
2018-07-17T11:06:04.227Z,1009.91
2018-07-17T11:07:04.204Z,1009.92
2018-07-17T11:08:04.201Z,1009.86
2018-07-17T11:09:04.156Z,1009.85
2018-07-17T11:10:04.133Z,1009.93
2018-07-17T11:11:04.102Z,1009.93
2018-07-17T11:12:13.919Z,1009.90
2018-07-17T11:13:04.059Z,1009.87
2018-07-17T11:14:04.028Z,1009.88
2018-07-17T11:15:04.005Z,1009.83
2018-07-17T11:16:03.988Z,1009.84
2018-07-17T11:17:03.972Z,1009.86
2018-07-17T11:18:03.964Z,1009.88
2018-07-17T11:19:03.916Z,1009.85
2018-07-17T11:20:03.886Z,1009.83
2018-07-17T11:21:03.867Z,1009.76
2018-07-17T11:22:03.840Z,1009.91
2018-07-17T11:23:03.843Z,1009.75
2018-07-17T11:24:03.798Z,1009.81
2018-07-17T11:25:03.779Z,1009.77
2018-07-17T11:26:03.758Z,1009.77
2018-07-17T11:27:03.729Z,1009.73
2018-07-17T11:28:03.703Z,1009.79
2018-07-17T11:29:03.702Z,1009.76
2018-07-17T11:30:03.665Z,1009.86
2018-07-17T11:31:03.640Z,1009.84
2018-07-17T11:32:03.643Z,1009.73
2018-07-17T11:33:13.943Z,1009.81
2018-07-17T11:34:03.592Z,1009.73
2018-07-17T11:35:03.548Z,1009.70
2018-07-17T11:36:03.522Z,1009.72
2018-07-17T11:37:03.499Z,1009.70
2018-07-17T11:38:03.465Z,1009.78
2018-07-17T11:39:03.443Z,1009.69
2018-07-17T11:40:03.441Z,1009.66
2018-07-17T11:41:03.393Z,1009.61
2018-07-17T11:42:03.378Z,1009.58
2018-07-17T11:43:03.355Z,1009.63
2018-07-17T11:44:03.324Z,1009.59
2018-07-17T11:45:03.322Z,1009.58
2018-07-17T11:46:03.287Z,1009.57
2018-07-17T11:47:03.261Z,1009.61
2018-07-17T11:48:03.242Z,1009.59
2018-07-17T11:49:03.216Z,1009.53
2018-07-17T11:50:03.209Z,1009.53
2018-07-17T11:51:03.161Z,1009.38
2018-07-17T11:52:03.135Z,1009.54
2018-07-17T11:53:03.113Z,1009.57
2018-07-17T11:54:03.101Z,1009.62
2018-07-17T11:55:03.071Z,1009.46
2018-07-17T11:56:03.072Z,1009.46
2018-07-17T11:57:03.028Z,1009.57
2018-07-17T11:58:02.994Z,1009.63
2018-07-17T11:59:02.997Z,1009.47
2018-07-17T12:00:02.955Z,1009.44
2018-07-17T12:01:02.956Z,1009.44
2018-07-17T12:02:02.901Z,1009.45
2018-07-17T12:03:02.873Z,1009.49
2018-07-17T12:04:02.847Z,1009.54
2018-07-17T12:05:02.822Z,1009.54